sensor_id;sensor_type;location;lat;lon;timestamp;pressure;altitude;pressure_sealevel;temperature;humidity
71107;BME280;58763;47.982;11.516;2024-02-26T00:01:36;92395.59;;;4.11;55.57
71107;BME280;58763;47.982;11.516;2024-02-26T00:04:02;92404.22;;;4.08;55.68
71107;BME280;58763;47.982;11.516;2024-02-26T00:06:29;92395.25;;;3.99;55.59
71107;BME280;58763;47.982;11.516;2024-02-26T00:08:55;92394.53;;;3.93;56.30
71107;BME280;58763;47.982;11.516;2024-02-26T00:11:20;92396.78;;;4.05;55.99
71107;BME280;58763;47.982;11.516;2024-02-26T00:13:46;92402.69;;;4.02;55.92
71107;BME280;58763;47.982;11.516;2024-02-26T00:16:11;92402.94;;;4.05;55.95
71107;BME280;58763;47.982;11.516;2024-02-26T00:18:37;92399.50;;;4.00;56.18
71107;BME280;58763;47.982;11.516;2024-02-26T00:21:03;92405.81;;;4.09;55.58
71107;BME280;58763;47.982;11.516;2024-02-26T00:23:28;92402.56;;;4.12;55.88
71107;BME280;58763;47.982;11.516;2024-02-26T00:25:54;92396.19;;;4.08;55.67
71107;BME280;58763;47.982;11.516;2024-02-26T00:28:20;92395.97;;;4.04;56.04
71107;BME280;58763;47.982;11.516;2024-02-26T00:30:46;92393.38;;;3.99;56.19
71107;BME280;58763;47.982;11.516;2024-02-26T00:33:13;92384.28;;;4.00;55.96
71107;BME280;58763;47.982;11.516;2024-02-26T00:35:39;92385.72;;;3.93;56.30
71107;BME280;58763;47.982;11.516;2024-02-26T00:38:04;92390.19;;;3.97;56.72
71107;BME280;58763;47.982;11.516;2024-02-26T00:40:30;92385.72;;;3.93;56.64
71107;BME280;58763;47.982;11.516;2024-02-26T00:42:56;92379.66;;;3.87;56.85
71107;BME280;58763;47.982;11.516;2024-02-26T00:45:22;92383.59;;;3.90;56.70
71107;BME280;58763;47.982;11.516;2024-02-26T00:47:47;92386.50;;;3.93;56.94
71107;BME280;58763;47.982;11.516;2024-02-26T00:50:14;92383.25;;;3.96;56.72
71107;BME280;58763;47.982;11.516;2024-02-26T00:52:40;92380.28;;;3.98;56.66
71107;BME280;58763;47.982;11.516;2024-02-26T00:55:06;92389.69;;;3.95;56.86
71107;BME280;58763;47.982;11.516;2024-02-26T00:57:32;92387.25;;;3.99;56.77
71107;BME280;58763;47.982;11.516;2024-02-26T00:59:58;92390.78;;;3.94;57.05
71107;BME280;58763;47.982;11.516;2024-02-26T01:02:24;92386.16;;;4.00;56.67
71107;BME280;58763;47.982;11.516;2024-02-26T01:04:50;92392.94;;;3.92;57.54
71107;BME280;58763;47.982;11.516;2024-02-26T01:07:15;92393.59;;;3.84;57.54
71107;BME280;58763;47.982;11.516;2024-02-26T01:09:42;92398.59;;;3.67;58.84
71107;BME280;58763;47.982;11.516;2024-02-26T01:12:08;92393.63;;;3.61;58.67
71107;BME280;58763;47.982;11.516;2024-02-26T01:14:34;92388.34;;;3.56;59.48
71107;BME280;58763;47.982;11.516;2024-02-26T01:16:59;92384.16;;;3.49;59.10
71107;BME280;58763;47.982;11.516;2024-02-26T01:19:25;92382.47;;;3.54;58.84
71107;BME280;58763;47.982;11.516;2024-02-26T01:21:50;92373.66;;;3.53;58.63
71107;BME280;58763;47.982;11.516;2024-02-26T01:24:16;92374.69;;;3.57;58.61
71107;BME280;58763;47.982;11.516;2024-02-26T01:26:42;92369.91;;;3.54;58.98
71107;BME280;58763;47.982;11.516;2024-02-26T01:29:07;92375.84;;;3.51;58.71
71107;BME280;58763;47.982;11.516;2024-02-26T01:31:33;92377.56;;;3.42;59.21
71107;BME280;58763;47.982;11.516;2024-02-26T01:33:58;92382.66;;;3.38;59.35
71107;BME280;58763;47.982;11.516;2024-02-26T01:36:24;92381.28;;;3.41;59.57
71107;BME280;58763;47.982;11.516;2024-02-26T01:38:50;92382.16;;;3.36;59.48
71107;BME280;58763;47.982;11.516;2024-02-26T01:41:16;92387.50;;;3.36;59.80
71107;BME280;58763;47.982;11.516;2024-02-26T01:43:42;92378.28;;;3.47;59.05
71107;BME280;58763;47.982;11.516;2024-02-26T01:46:12;92382.94;;;3.37;59.13
71107;BME280;58763;47.982;11.516;2024-02-26T01:48:42;92383.09;;;3.45;59.00
71107;BME280;58763;47.982;11.516;2024-02-26T01:51:10;92375.53;;;3.53;59.75
71107;BME280;58763;47.982;11.516;2024-02-26T01:53:36;92379.41;;;3.41;60.04
71107;BME280;58763;47.982;11.516;2024-02-26T01:56:03;92371.41;;;3.41;60.25
71107;BME280;58763;47.982;11.516;2024-02-26T01:58:30;92370.38;;;3.37;60.13
71107;BME280;58763;47.982;11.516;2024-02-26T02:00:57;92367.78;;;3.32;60.99
71107;BME280;58763;47.982;11.516;2024-02-26T02:03:23;92362.13;;;3.34;60.25
71107;BME280;58763;47.982;11.516;2024-02-26T02:05:49;92361.88;;;3.35;60.03
71107;BME280;58763;47.982;11.516;2024-02-26T02:08:15;92365.03;;;3.37;59.85
71107;BME280;58763;47.982;11.516;2024-02-26T02:10:42;92357.94;;;3.28;60.29
71107;BME280;58763;47.982;11.516;2024-02-26T02:13:08;92358.25;;;3.26;60.23
71107;BME280;58763;47.982;11.516;2024-02-26T02:15:33;92349.13;;;3.27;60.74
71107;BME280;58763;47.982;11.516;2024-02-26T02:17:59;92348.34;;;3.27;60.25
71107;BME280;58763;47.982;11.516;2024-02-26T02:20:34;92349.72;;;3.24;60.30
71107;BME280;58763;47.982;11.516;2024-02-26T02:23:00;92355.56;;;3.26;60.78
71107;BME280;58763;47.982;11.516;2024-02-26T02:25:26;92354.91;;;3.34;61.10
71107;BME280;58763;47.982;11.516;2024-02-26T02:27:53;92355.63;;;3.21;61.34
71107;BME280;58763;47.982;11.516;2024-02-26T02:30:21;92359.31;;;3.25;60.96
71107;BME280;58763;47.982;11.516;2024-02-26T02:32:49;92354.91;;;3.34;60.80
71107;BME280;58763;47.982;11.516;2024-02-26T02:35:15;92342.06;;;3.36;60.60
71107;BME280;58763;47.982;11.516;2024-02-26T02:37:40;92345.09;;;3.30;60.71
71107;BME280;58763;47.982;11.516;2024-02-26T02:40:06;92347.91;;;3.38;60.32
71107;BME280;58763;47.982;11.516;2024-02-26T02:42:32;92351.19;;;3.35;60.49
71107;BME280;58763;47.982;11.516;2024-02-26T02:44:57;92350.75;;;3.28;60.56
71107;BME280;58763;47.982;11.516;2024-02-26T02:47:23;92346.97;;;3.29;60.76
71107;BME280;58763;47.982;11.516;2024-02-26T02:49:49;92346.41;;;3.32;60.10
71107;BME280;58763;47.982;11.516;2024-02-26T02:52:14;92354.38;;;3.37;60.12
71107;BME280;58763;47.982;11.516;2024-02-26T02:54:40;92341.00;;;3.37;60.37
71107;BME280;58763;47.982;11.516;2024-02-26T02:57:08;92348.72;;;3.39;60.27
71107;BME280;58763;47.982;11.516;2024-02-26T02:59:34;92338.84;;;3.39;60.00
71107;BME280;58763;47.982;11.516;2024-02-26T03:01:59;92338.09;;;3.34;60.12
71107;BME280;58763;47.982;11.516;2024-02-26T03:04:25;92343.38;;;3.39;60.13
71107;BME280;58763;47.982;11.516;2024-02-26T03:06:50;92336.41;;;3.43;60.38
71107;BME280;58763;47.982;11.516;2024-02-26T03:09:16;92340.94;;;3.42;60.67
71107;BME280;58763;47.982;11.516;2024-02-26T03:11:41;92339.53;;;3.50;60.55
71107;BME280;58763;47.982;11.516;2024-02-26T03:14:07;92336.84;;;3.50;60.48
71107;BME280;58763;47.982;11.516;2024-02-26T03:16:33;92336.00;;;3.55;60.17
71107;BME280;58763;47.982;11.516;2024-02-26T03:18:58;92331.16;;;3.57;60.58
71107;BME280;58763;47.982;11.516;2024-02-26T03:21:27;92331.16;;;3.57;60.36
71107;BME280;58763;47.982;11.516;2024-02-26T03:23:53;92335.63;;;3.61;59.94
71107;BME280;58763;47.982;11.516;2024-02-26T03:26:18;92338.06;;;3.58;60.05
71107;BME280;58763;47.982;11.516;2024-02-26T03:28:44;92335.31;;;3.63;59.66
71107;BME280;58763;47.982;11.516;2024-02-26T03:31:10;92344.66;;;3.65;59.73
71107;BME280;58763;47.982;11.516;2024-02-26T03:33:36;92348.94;;;3.66;59.29
71107;BME280;58763;47.982;11.516;2024-02-26T03:36:02;92345.81;;;3.59;59.67
71107;BME280;58763;47.982;11.516;2024-02-26T03:38:29;92339.09;;;3.62;59.52
71107;BME280;58763;47.982;11.516;2024-02-26T03:40:54;92342.75;;;3.47;60.04
71107;BME280;58763;47.982;11.516;2024-02-26T03:43:21;92343.81;;;3.46;60.38
71107;BME280;58763;47.982;11.516;2024-02-26T03:45:47;92344.06;;;3.49;59.83
71107;BME280;58763;47.982;11.516;2024-02-26T03:48:12;92334.69;;;3.52;59.61
71107;BME280;58763;47.982;11.516;2024-02-26T03:50:38;92330.56;;;3.60;59.53
71107;BME280;58763;47.982;11.516;2024-02-26T03:53:04;92335.41;;;3.58;59.81
71107;BME280;58763;47.982;11.516;2024-02-26T03:55:29;92334.88;;;3.56;59.90
71107;BME280;58763;47.982;11.516;2024-02-26T03:57:55;92331.91;;;3.57;59.63
71107;BME280;58763;47.982;11.516;2024-02-26T04:00:20;92335.91;;;3.60;59.30
71107;BME280;58763;47.982;11.516;2024-02-26T04:02:49;92334.03;;;3.60;59.01
71107;BME280;58763;47.982;11.516;2024-02-26T04:05:15;92324.06;;;3.66;58.93
71107;BME280;58763;47.982;11.516;2024-02-26T04:07:41;92332.09;;;3.66;59.01
71107;BME280;58763;47.982;11.516;2024-02-26T04:10:12;92327.19;;;3.73;59.00
71107;BME280;58763;47.982;11.516;2024-02-26T04:12:42;92324.44;;;3.78;58.50
71107;BME280;58763;47.982;11.516;2024-02-26T04:15:09;92331.66;;;3.77;58.50
71107;BME280;58763;47.982;11.516;2024-02-26T04:17:36;92328.50;;;3.75;58.87
71107;BME280;58763;47.982;11.516;2024-02-26T04:20:03;92326.00;;;3.79;58.63
71107;BME280;58763;47.982;11.516;2024-02-26T04:22:29;92330.84;;;3.77;58.70
71107;BME280;58763;47.982;11.516;2024-02-26T04:24:54;92327.03;;;3.83;58.40
71107;BME280;58763;47.982;11.516;2024-02-26T04:27:20;92336.06;;;3.87;58.30
71107;BME280;58763;47.982;11.516;2024-02-26T04:29:45;92330.28;;;3.80;58.36
71107;BME280;58763;47.982;11.516;2024-02-26T04:32:11;92332.53;;;3.73;58.27
71107;BME280;58763;47.982;11.516;2024-02-26T04:34:37;92336.50;;;3.75;58.58
71107;BME280;58763;47.982;11.516;2024-02-26T04:37:02;92335.78;;;3.70;58.59
71107;BME280;58763;47.982;11.516;2024-02-26T04:39:28;92332.16;;;3.79;58.16
71107;BME280;58763;47.982;11.516;2024-02-26T04:41:54;92340.38;;;3.83;57.86
71107;BME280;58763;47.982;11.516;2024-02-26T04:44:19;92336.06;;;3.87;57.87
71107;BME280;58763;47.982;11.516;2024-02-26T04:46:45;92335.84;;;3.83;57.63
71107;BME280;58763;47.982;11.516;2024-02-26T04:49:10;92339.88;;;3.81;57.88
71107;BME280;58763;47.982;11.516;2024-02-26T04:51:36;92330.78;;;3.82;57.49
71107;BME280;58763;47.982;11.516;2024-02-26T04:54:02;92337.16;;;3.86;57.32
71107;BME280;58763;47.982;11.516;2024-02-26T04:56:28;92333.91;;;3.89;57.46
71107;BME280;58763;47.982;11.516;2024-02-26T04:58:54;92330.50;;;4.02;56.99
71107;BME280;58763;47.982;11.516;2024-02-26T05:01:19;92335.75;;;4.07;56.78
71107;BME280;58763;47.982;11.516;2024-02-26T05:03:45;92334.03;;;4.16;56.31
71107;BME280;58763;47.982;11.516;2024-02-26T05:06:10;92323.75;;;4.23;55.95
71107;BME280;58763;47.982;11.516;2024-02-26T05:08:36;92327.34;;;4.32;55.57
71107;BME280;58763;47.982;11.516;2024-02-26T05:11:03;92326.25;;;4.33;55.73
71107;BME280;58763;47.982;11.516;2024-02-26T05:13:29;92328.94;;;4.33;55.82
71107;BME280;58763;47.982;11.516;2024-02-26T05:15:55;92341.09;;;4.26;56.08
71107;BME280;58763;47.982;11.516;2024-02-26T05:18:22;92342.81;;;4.35;56.85
71107;BME280;58763;47.982;11.516;2024-02-26T05:20:47;92342.50;;;4.37;57.02
71107;BME280;58763;47.982;11.516;2024-02-26T05:23:13;92342.41;;;4.28;57.41
71107;BME280;58763;47.982;11.516;2024-02-26T05:25:38;92345.06;;;4.28;57.81
71107;BME280;58763;47.982;11.516;2024-02-26T05:28:04;92353.47;;;4.22;58.01
71107;BME280;58763;47.982;11.516;2024-02-26T05:30:30;92357.81;;;4.17;57.60
71107;BME280;58763;47.982;11.516;2024-02-26T05:32:55;92355.78;;;4.09;57.60
71107;BME280;58763;47.982;11.516;2024-02-26T05:35:21;92361.50;;;4.22;57.34
71107;BME280;58763;47.982;11.516;2024-02-26T05:37:47;92361.88;;;4.15;57.63
71107;BME280;58763;47.982;11.516;2024-02-26T05:40:12;92368.28;;;4.14;57.55
71107;BME280;58763;47.982;11.516;2024-02-26T05:42:38;92354.34;;;4.17;57.60
71107;BME280;58763;47.982;11.516;2024-02-26T05:45:07;92364.75;;;4.18;56.91
71107;BME280;58763;47.982;11.516;2024-02-26T05:47:33;92354.31;;;4.36;56.47
71107;BME280;58763;47.982;11.516;2024-02-26T05:49:59;92354.78;;;4.24;56.57
71107;BME280;58763;47.982;11.516;2024-02-26T05:52:26;92354.91;;;4.33;56.54
71107;BME280;58763;47.982;11.516;2024-02-26T05:54:53;92359.78;;;4.44;55.93
71107;BME280;58763;47.982;11.516;2024-02-26T05:57:19;92369.56;;;4.35;56.45
71107;BME280;58763;47.982;11.516;2024-02-26T05:59:44;92368.50;;;4.36;56.62
71107;BME280;58763;47.982;11.516;2024-02-26T06:02:10;92366.78;;;4.27;56.85
71107;BME280;58763;47.982;11.516;2024-02-26T06:04:36;92373.19;;;4.26;57.79
71107;BME280;58763;47.982;11.516;2024-02-26T06:07:02;92374.63;;;4.18;57.95
71107;BME280;58763;47.982;11.516;2024-02-26T06:09:28;92375.00;;;4.30;57.60
71107;BME280;58763;47.982;11.516;2024-02-26T06:11:53;92386.38;;;4.22;57.53
71107;BME280;58763;47.982;11.516;2024-02-26T06:14:19;92388.31;;;4.35;57.37
71107;BME280;58763;47.982;11.516;2024-02-26T06:16:46;92395.00;;;4.51;58.15
71107;BME280;58763;47.982;11.516;2024-02-26T06:19:12;92384.53;;;4.55;57.94
71107;BME280;58763;47.982;11.516;2024-02-26T06:21:37;92385.09;;;4.52;57.66
71107;BME280;58763;47.982;11.516;2024-02-26T06:24:03;92391.59;;;4.46;57.29
71107;BME280;58763;47.982;11.516;2024-02-26T06:26:29;92392.34;;;4.51;57.14
71107;BME280;58763;47.982;11.516;2024-02-26T06:28:55;92396.19;;;4.45;56.95
71107;BME280;58763;47.982;11.516;2024-02-26T06:31:22;92408.38;;;4.51;56.63
71107;BME280;58763;47.982;11.516;2024-02-26T06:33:50;92397.53;;;4.61;56.39
71107;BME280;58763;47.982;11.516;2024-02-26T06:36:16;92415.28;;;4.57;56.21
71107;BME280;58763;47.982;11.516;2024-02-26T06:38:41;92416.47;;;4.65;56.09
71107;BME280;58763;47.982;11.516;2024-02-26T06:41:07;92416.09;;;4.71;56.41
71107;BME280;58763;47.982;11.516;2024-02-26T06:43:33;92427.59;;;4.72;57.91
71107;BME280;58763;47.982;11.516;2024-02-26T06:45:58;92426.03;;;4.71;57.52
71107;BME280;58763;47.982;11.516;2024-02-26T06:48:24;92432.16;;;4.71;57.87
71107;BME280;58763;47.982;11.516;2024-02-26T06:50:50;92429.63;;;4.80;57.95
71107;BME280;58763;47.982;11.516;2024-02-26T06:53:16;92441.13;;;4.80;58.56
71107;BME280;58763;47.982;11.516;2024-02-26T06:55:42;92437.34;;;4.81;58.56
71107;BME280;58763;47.982;11.516;2024-02-26T06:58:08;92427.75;;;4.80;58.30
71107;BME280;58763;47.982;11.516;2024-02-26T07:00:34;92428.81;;;4.79;57.80
71107;BME280;58763;47.982;11.516;2024-02-26T07:03:00;92441.19;;;4.94;57.51
71107;BME280;58763;47.982;11.516;2024-02-26T07:05:27;92446.00;;;5.11;57.62
71107;BME280;58763;47.982;11.516;2024-02-26T07:07:53;92441.44;;;4.93;58.24
71107;BME280;58763;47.982;11.516;2024-02-26T07:10:18;92442.06;;;4.89;58.30
71107;BME280;58763;47.982;11.516;2024-02-26T07:12:44;92438.28;;;4.90;57.31
71107;BME280;58763;47.982;11.516;2024-02-26T07:15:10;92435.81;;;4.94;57.67
71107;BME280;58763;47.982;11.516;2024-02-26T07:17:36;92425.53;;;5.01;57.27
71107;BME280;58763;47.982;11.516;2024-02-26T07:20:02;92432.84;;;4.96;57.26
71107;BME280;58763;47.982;11.516;2024-02-26T07:22:31;92433.38;;;5.11;56.97
71107;BME280;58763;47.982;11.516;2024-02-26T07:24:57;92431.09;;;5.18;56.56
71107;BME280;58763;47.982;11.516;2024-02-26T07:27:23;92434.00;;;5.22;56.88
71107;BME280;58763;47.982;11.516;2024-02-26T07:29:49;92436.91;;;5.39;56.18
71107;BME280;58763;47.982;11.516;2024-02-26T07:32:15;92437.72;;;5.53;55.93
71107;BME280;58763;47.982;11.516;2024-02-26T07:34:41;92446.06;;;5.51;55.96
71107;BME280;58763;47.982;11.516;2024-02-26T07:37:10;92443.69;;;5.64;56.32
71107;BME280;58763;47.982;11.516;2024-02-26T07:39:36;92451.63;;;5.69;58.62
71107;BME280;58763;47.982;11.516;2024-02-26T07:42:02;92453.81;;;5.80;57.08
71107;BME280;58763;47.982;11.516;2024-02-26T07:44:28;92454.84;;;5.84;57.19
71107;BME280;58763;47.982;11.516;2024-02-26T07:46:54;92455.53;;;5.90;55.93
71107;BME280;58763;47.982;11.516;2024-02-26T07:49:20;92465.84;;;5.83;55.75
71107;BME280;58763;47.982;11.516;2024-02-26T07:51:45;92465.94;;;5.78;56.42
71107;BME280;58763;47.982;11.516;2024-02-26T07:54:11;92476.66;;;5.78;56.24
71107;BME280;58763;47.982;11.516;2024-02-26T07:56:37;92471.88;;;5.75;55.54
71107;BME280;58763;47.982;11.516;2024-02-26T07:59:03;92474.88;;;5.73;56.45
71107;BME280;58763;47.982;11.516;2024-02-26T08:01:28;92477.66;;;5.68;57.46
71107;BME280;58763;47.982;11.516;2024-02-26T08:03:55;92468.53;;;5.69;57.45
71107;BME280;58763;47.982;11.516;2024-02-26T08:06:23;92469.28;;;5.70;57.37
71107;BME280;58763;47.982;11.516;2024-02-26T08:08:50;92465.22;;;5.72;57.67
71107;BME280;58763;47.982;11.516;2024-02-26T08:11:15;92458.19;;;5.76;58.16
71107;BME280;58763;47.982;11.516;2024-02-26T08:13:41;92459.13;;;5.85;57.25
71107;BME280;58763;47.982;11.516;2024-02-26T08:16:07;92457.59;;;5.93;57.48
71107;BME280;58763;47.982;11.516;2024-02-26T08:18:33;92458.31;;;5.98;57.75
71107;BME280;58763;47.982;11.516;2024-02-26T08:20:59;92456.03;;;6.05;57.70
71107;BME280;58763;47.982;11.516;2024-02-26T08:23:24;92446.38;;;6.18;58.14
71107;BME280;58763;47.982;11.516;2024-02-26T08:25:51;92465.34;;;6.21;58.33
71107;BME280;58763;47.982;11.516;2024-02-26T08:28:18;92465.66;;;6.20;58.48
71107;BME280;58763;47.982;11.516;2024-02-26T08:30:44;92471.91;;;6.29;57.07
71107;BME280;58763;47.982;11.516;2024-02-26T08:33:09;92463.44;;;6.36;56.99
71107;BME280;58763;47.982;11.516;2024-02-26T08:35:36;92463.66;;;6.39;56.98
71107;BME280;58763;47.982;11.516;2024-02-26T08:38:09;92461.41;;;6.55;57.73
71107;BME280;58763;47.982;11.516;2024-02-26T08:40:34;92464.97;;;6.64;57.29
71107;BME280;58763;47.982;11.516;2024-02-26T08:43:00;92463.84;;;6.78;56.55
71107;BME280;58763;47.982;11.516;2024-02-26T08:45:26;92464.38;;;6.89;55.72
71107;BME280;58763;47.982;11.516;2024-02-26T08:47:52;92475.03;;;6.94;57.51
71107;BME280;58763;47.982;11.516;2024-02-26T08:50:18;92472.09;;;7.04;58.53
71107;BME280;58763;47.982;11.516;2024-02-26T08:52:43;92468.78;;;7.07;57.05
71107;BME280;58763;47.982;11.516;2024-02-26T08:55:11;92478.22;;;7.18;57.57
71107;BME280;58763;47.982;11.516;2024-02-26T08:57:38;92476.50;;;7.22;58.39
71107;BME280;58763;47.982;11.516;2024-02-26T09:00:05;92485.53;;;7.26;58.50
71107;BME280;58763;47.982;11.516;2024-02-26T09:02:31;92482.34;;;7.24;57.44
71107;BME280;58763;47.982;11.516;2024-02-26T09:04:56;92474.16;;;7.29;57.22
71107;BME280;58763;47.982;11.516;2024-02-26T09:07:22;92485.66;;;7.43;56.19
71107;BME280;58763;47.982;11.516;2024-02-26T09:09:48;92481.50;;;7.37;56.82
71107;BME280;58763;47.982;11.516;2024-02-26T09:12:13;92477.75;;;7.47;57.59
71107;BME280;58763;47.982;11.516;2024-02-26T09:14:39;92468.81;;;7.60;56.52
71107;BME280;58763;47.982;11.516;2024-02-26T09:17:04;92470.47;;;7.70;55.12
71107;BME280;58763;47.982;11.516;2024-02-26T09:19:31;92469.41;;;7.79;54.86
71107;BME280;58763;47.982;11.516;2024-02-26T09:21:56;92473.03;;;7.83;55.01
71107;BME280;58763;47.982;11.516;2024-02-26T09:24:24;92469.78;;;7.95;53.76
71107;BME280;58763;47.982;11.516;2024-02-26T09:26:50;92466.47;;;7.98;54.36
71107;BME280;58763;47.982;11.516;2024-02-26T09:29:16;92473.63;;;8.11;55.65
71107;BME280;58763;47.982;11.516;2024-02-26T09:31:41;92479.88;;;8.28;55.05
71107;BME280;58763;47.982;11.516;2024-02-26T09:34:07;92475.63;;;8.36;54.56
71107;BME280;58763;47.982;11.516;2024-02-26T09:36:35;92477.59;;;8.61;52.48
71107;BME280;58763;47.982;11.516;2024-02-26T09:39:01;92479.66;;;8.64;50.64
71107;BME280;58763;47.982;11.516;2024-02-26T09:41:28;92477.91;;;8.68;51.15
71107;BME280;58763;47.982;11.516;2024-02-26T09:43:56;92478.75;;;8.94;52.14
71107;BME280;58763;47.982;11.516;2024-02-26T09:46:23;92477.50;;;9.00;52.13
71107;BME280;58763;47.982;11.516;2024-02-26T09:48:50;92481.59;;;9.07;51.48
71107;BME280;58763;47.982;11.516;2024-02-26T09:51:17;92482.56;;;9.11;51.90
71107;BME280;58763;47.982;11.516;2024-02-26T09:53:44;92478.13;;;9.15;53.02
71107;BME280;58763;47.982;11.516;2024-02-26T09:56:12;92475.09;;;9.25;51.50
71107;BME280;58763;47.982;11.516;2024-02-26T09:58:39;92469.41;;;9.26;50.99
71107;BME280;58763;47.982;11.516;2024-02-26T10:01:11;92466.69;;;9.35;51.31
71107;BME280;58763;47.982;11.516;2024-02-26T10:03:41;92463.03;;;8.96;59.00
71107;BME280;58763;47.982;11.516;2024-02-26T10:06:11;92462.44;;;8.91;59.47
71107;BME280;58763;47.982;11.516;2024-02-26T10:08:36;92454.50;;;8.86;59.45
71107;BME280;58763;47.982;11.516;2024-02-26T10:11:06;92445.94;;;8.92;59.61
71107;BME280;58763;47.982;11.516;2024-02-26T10:13:34;92439.44;;;8.68;60.90
71107;BME280;58763;47.982;11.516;2024-02-26T10:16:01;92448.94;;;8.65;61.72
71107;BME280;58763;47.982;11.516;2024-02-26T10:18:53;92441.78;;;8.61;62.63
71107;BME280;58763;47.982;11.516;2024-02-26T10:21:22;92438.78;;;8.62;63.24
71107;BME280;58763;47.982;11.516;2024-02-26T10:23:49;92438.47;;;8.72;62.99
71107;BME280;58763;47.982;11.516;2024-02-26T10:26:16;92454.94;;;8.71;62.36
71107;BME280;58763;47.982;11.516;2024-02-26T10:28:43;92458.28;;;8.76;62.20
71107;BME280;58763;47.982;11.516;2024-02-26T10:31:10;92464.31;;;8.82;61.14
71107;BME280;58763;47.982;11.516;2024-02-26T10:33:36;92471.28;;;8.91;60.81
71107;BME280;58763;47.982;11.516;2024-02-26T10:36:06;92463.38;;;9.03;60.34
71107;BME280;58763;47.982;11.516;2024-02-26T10:38:36;92462.41;;;9.17;60.57
71107;BME280;58763;47.982;11.516;2024-02-26T10:41:04;92467.50;;;9.35;60.13
71107;BME280;58763;47.982;11.516;2024-02-26T10:43:30;92465.88;;;9.51;59.38
71107;BME280;58763;47.982;11.516;2024-02-26T10:45:57;92470.44;;;9.68;58.12
71107;BME280;58763;47.982;11.516;2024-02-26T10:48:22;92472.81;;;9.69;57.15
71107;BME280;58763;47.982;11.516;2024-02-26T10:50:48;92472.16;;;9.81;56.88
71107;BME280;58763;47.982;11.516;2024-02-26T10:53:22;92470.84;;;9.87;55.30
71107;BME280;58763;47.982;11.516;2024-02-26T10:55:53;92480.06;;;9.86;55.46
71107;BME280;58763;47.982;11.516;2024-02-26T10:58:21;92475.47;;;9.87;54.69
71107;BME280;58763;47.982;11.516;2024-02-26T11:00:49;92475.28;;;10.00;55.03
71107;BME280;58763;47.982;11.516;2024-02-26T11:03:15;92465.41;;;10.04;54.98
71107;BME280;58763;47.982;11.516;2024-02-26T11:05:44;92470.03;;;10.12;55.02
71107;BME280;58763;47.982;11.516;2024-02-26T11:08:11;92476.47;;;10.20;53.56
71107;BME280;58763;47.982;11.516;2024-02-26T11:10:37;92474.50;;;10.37;53.79
71107;BME280;58763;47.982;11.516;2024-02-26T11:13:05;92477.97;;;10.47;53.60
71107;BME280;58763;47.982;11.516;2024-02-26T11:15:32;92486.25;;;10.71;53.49
71107;BME280;58763;47.982;11.516;2024-02-26T11:17:59;92484.03;;;10.73;52.16
71107;BME280;58763;47.982;11.516;2024-02-26T11:20:28;92489.31;;;10.90;51.31
71107;BME280;58763;47.982;11.516;2024-02-26T11:22:53;92498.19;;;10.99;51.78
71107;BME280;58763;47.982;11.516;2024-02-26T11:25:19;92495.53;;;11.11;51.49
71107;BME280;58763;47.982;11.516;2024-02-26T11:27:50;92484.97;;;11.18;51.22
71107;BME280;58763;47.982;11.516;2024-02-26T11:30:18;92480.97;;;11.24;51.14
71107;BME280;58763;47.982;11.516;2024-02-26T11:32:46;92477.47;;;11.24;50.82
71107;BME280;58763;47.982;11.516;2024-02-26T11:35:13;92480.28;;;11.48;52.02
71107;BME280;58763;47.982;11.516;2024-02-26T11:37:54;92474.22;;;11.84;53.52
71107;BME280;58763;47.982;11.516;2024-02-26T11:40:23;92468.78;;;12.16;52.74
71107;BME280;58763;47.982;11.516;2024-02-26T11:42:50;92464.41;;;12.48;51.09
71107;BME280;58763;47.982;11.516;2024-02-26T11:48:11;92450.16;;;12.87;49.71
71107;BME280;58763;47.982;11.516;2024-02-26T11:50:42;92440.41;;;12.98;48.85
71107;BME280;58763;47.982;11.516;2024-02-26T11:53:26;92442.69;;;13.08;49.20
71107;BME280;58763;47.982;11.516;2024-02-26T11:59:10;92443.53;;;13.37;45.89
71107;BME280;58763;47.982;11.516;2024-02-26T12:01:46;92442.34;;;13.50;46.29
71107;BME280;58763;47.982;11.516;2024-02-26T12:04:24;92436.06;;;13.61;44.57
71107;BME280;58763;47.982;11.516;2024-02-26T12:06:55;92438.19;;;13.68;42.15
71107;BME280;58763;47.982;11.516;2024-02-26T12:09:35;92432.69;;;13.80;41.40
71107;BME280;58763;47.982;11.516;2024-02-26T12:12:06;92442.97;;;13.86;41.40
71107;BME280;58763;47.982;11.516;2024-02-26T12:14:37;92448.84;;;13.61;39.64
71107;BME280;58763;47.982;11.516;2024-02-26T12:17:04;92455.91;;;13.50;39.68
71107;BME280;58763;47.982;11.516;2024-02-26T12:19:35;92455.56;;;13.51;38.77
71107;BME280;58763;47.982;11.516;2024-02-26T12:22:02;92460.47;;;13.46;36.27
71107;BME280;58763;47.982;11.516;2024-02-26T12:24:28;92459.66;;;13.45;37.20
71107;BME280;58763;47.982;11.516;2024-02-26T12:26:53;92464.81;;;13.62;36.26
71107;BME280;58763;47.982;11.516;2024-02-26T12:29:19;92466.28;;;13.88;37.38
71107;BME280;58763;47.982;11.516;2024-02-26T12:31:45;92479.03;;;13.99;37.61
71107;BME280;58763;47.982;11.516;2024-02-26T12:34:11;92476.56;;;14.10;37.20
71107;BME280;58763;47.982;11.516;2024-02-26T12:36:37;92476.44;;;14.18;38.06
71107;BME280;58763;47.982;11.516;2024-02-26T12:39:04;92481.50;;;13.76;33.59
71107;BME280;58763;47.982;11.516;2024-02-26T12:41:33;92477.84;;;13.57;35.24
71107;BME280;58763;47.982;11.516;2024-02-26T12:43:59;92477.88;;;13.45;34.73
71107;BME280;58763;47.982;11.516;2024-02-26T12:46:25;92483.38;;;13.21;35.81
71107;BME280;58763;47.982;11.516;2024-02-26T12:48:50;92481.91;;;13.23;36.70
71107;BME280;58763;47.982;11.516;2024-02-26T12:51:17;92482.97;;;13.46;38.62
71107;BME280;58763;47.982;11.516;2024-02-26T12:53:46;92492.91;;;13.54;40.62
71107;BME280;58763;47.982;11.516;2024-02-26T12:56:12;92484.34;;;13.68;44.24
71107;BME280;58763;47.982;11.516;2024-02-26T12:58:39;92487.91;;;13.84;42.85
71107;BME280;58763;47.982;11.516;2024-02-26T13:01:06;92482.75;;;13.79;42.76